createdAt,value
2023-01-09T00:00:22.828Z,8.46
2023-01-09T00:01:22.794Z,8.46
2023-01-09T00:02:22.829Z,8.36
2023-01-09T00:03:22.788Z,8.42
2023-01-09T00:04:22.760Z,8.36
2023-01-09T00:05:22.755Z,8.42
2023-01-09T00:06:22.741Z,8.35
2023-01-09T00:07:22.741Z,8.35
2023-01-09T00:08:22.740Z,8.38
2023-01-09T00:09:22.712Z,8.39
2023-01-09T00:10:22.692Z,8.31
2023-01-09T00:11:22.707Z,8.38
2023-01-09T00:12:22.687Z,8.27
2023-01-09T00:13:22.663Z,8.31
2023-01-09T00:14:22.663Z,8.34
2023-01-09T00:15:22.648Z,8.27
2023-01-09T00:16:22.691Z,8.36
2023-01-09T00:17:22.641Z,8.44
2023-01-09T00:18:22.608Z,8.45
2023-01-09T00:19:22.616Z,8.45
2023-01-09T00:20:22.620Z,8.31
2023-01-09T00:21:23.591Z,8.38
2023-01-09T00:22:22.589Z,8.35
2023-01-09T00:23:22.548Z,8.39
2023-01-09T00:24:22.557Z,8.32
2023-01-09T00:25:22.536Z,8.44
2023-01-09T00:26:22.547Z,8.41
2023-01-09T00:27:22.511Z,8.32
2023-01-09T00:28:22.534Z,8.31
2023-01-09T00:29:22.487Z,8.38
2023-01-09T00:30:22.490Z,8.49
2023-01-09T00:31:22.466Z,8.41
2023-01-09T00:32:22.463Z,8.36
2023-01-09T00:33:22.467Z,8.38
2023-01-09T00:34:22.434Z,8.36
2023-01-09T00:35:22.422Z,8.34
2023-01-09T00:36:22.426Z,8.36
2023-01-09T00:37:22.418Z,8.31
2023-01-09T00:38:22.389Z,8.31
2023-01-09T00:39:22.386Z,8.35
2023-01-09T00:40:22.369Z,8.38
2023-01-09T00:41:22.384Z,8.34
2023-01-09T00:42:22.397Z,8.21
2023-01-09T00:43:22.355Z,8.41
2023-01-09T00:44:22.311Z,8.41
2023-01-09T00:45:22.305Z,8.23
2023-01-09T00:46:22.360Z,8.27
2023-01-09T00:47:22.284Z,8.32
2023-01-09T00:48:22.295Z,8.17
2023-01-09T00:49:22.272Z,8.20
2023-01-09T00:50:22.254Z,8.20
2023-01-09T00:51:22.247Z,8.14
2023-01-09T00:52:22.278Z,8.18
2023-01-09T00:53:22.214Z,8.16
2023-01-09T00:54:22.229Z,8.13
2023-01-09T00:55:22.204Z,8.09
2023-01-09T00:56:22.199Z,8.06
2023-01-09T00:57:22.187Z,8.11
2023-01-09T00:58:22.178Z,8.05
2023-01-09T00:59:22.177Z,8.03
2023-01-09T01:00:22.141Z,8.02
2023-01-09T01:01:22.283Z,8.06
2023-01-09T01:02:22.302Z,7.96
2023-01-09T01:03:22.109Z,7.96
2023-01-09T01:04:22.095Z,7.99
2023-01-09T01:05:22.097Z,7.91
2023-01-09T01:06:22.085Z,8.03
2023-01-09T01:07:22.085Z,7.95
2023-01-09T01:08:22.078Z,7.98
2023-01-09T01:09:22.056Z,8.01
2023-01-09T01:10:22.049Z,7.98
2023-01-09T01:11:22.017Z,7.95
2023-01-09T01:12:22.016Z,7.93
2023-01-09T01:13:22.018Z,7.98
2023-01-09T01:14:22.003Z,7.96
2023-01-09T01:15:21.979Z,7.93
2023-01-09T01:16:22.055Z,7.91
2023-01-09T01:17:21.965Z,7.93
2023-01-09T01:18:21.957Z,7.95
2023-01-09T01:19:21.946Z,7.85
2023-01-09T01:20:21.924Z,8.01
2023-01-09T01:21:21.908Z,7.91
2023-01-09T01:22:21.922Z,7.93
2023-01-09T01:23:21.905Z,7.91
2023-01-09T01:24:21.893Z,7.88
2023-01-09T01:25:21.881Z,7.93
2023-01-09T01:26:21.863Z,7.91
2023-01-09T01:27:21.842Z,7.93
2023-01-09T01:28:21.846Z,7.91
2023-01-09T01:29:21.838Z,7.87
2023-01-09T01:30:21.828Z,7.85
2023-01-09T01:31:21.829Z,7.93
2023-01-09T01:32:21.809Z,7.90
2023-01-09T01:33:21.819Z,7.93
2023-01-09T01:34:21.782Z,7.93
2023-01-09T01:35:21.789Z,7.88
2023-01-09T01:36:21.763Z,7.91
2023-01-09T01:37:21.758Z,7.84
2023-01-09T01:38:21.733Z,7.85
2023-01-09T01:39:21.735Z,7.98
2023-01-09T01:40:21.710Z,7.98
2023-01-09T01:41:21.715Z,7.84
2023-01-09T01:42:21.693Z,7.91
2023-01-09T01:43:21.670Z,7.80
2023-01-09T01:44:21.667Z,7.84
2023-01-09T01:45:21.659Z,7.78
2023-01-09T01:46:21.716Z,7.96
2023-01-09T01:47:21.630Z,7.80
2023-01-09T01:48:21.626Z,7.84
2023-01-09T01:49:21.614Z,7.75
2023-01-09T01:50:21.619Z,7.93
2023-01-09T01:51:21.586Z,7.87
2023-01-09T01:52:21.579Z,7.78
2023-01-09T01:53:21.565Z,7.80
2023-01-09T01:54:21.569Z,7.84
2023-01-09T01:55:21.575Z,7.75
2023-01-09T01:56:21.530Z,7.93
2023-01-09T01:57:21.522Z,7.85
2023-01-09T01:58:21.538Z,7.90
2023-01-09T01:59:21.503Z,7.78
2023-01-09T02:00:21.500Z,7.72
2023-01-09T02:01:21.558Z,7.84
2023-01-09T02:02:21.612Z,7.85
2023-01-09T02:03:21.455Z,7.78
2023-01-09T02:04:21.461Z,7.81
2023-01-09T02:05:21.433Z,7.85
2023-01-09T02:06:21.435Z,7.77
2023-01-09T02:07:21.436Z,7.85
2023-01-09T02:08:21.409Z,7.72
2023-01-09T02:09:21.389Z,7.83
2023-01-09T02:10:21.385Z,7.81
2023-01-09T02:11:21.409Z,7.74
2023-01-09T02:12:21.382Z,7.78
2023-01-09T02:13:21.355Z,7.85
2023-01-09T02:14:21.339Z,7.80
2023-01-09T02:15:21.344Z,7.78
2023-01-09T02:16:21.398Z,7.72
2023-01-09T02:17:21.325Z,7.77
2023-01-09T02:18:21.301Z,7.74
2023-01-09T02:19:21.315Z,7.75
2023-01-09T02:20:21.302Z,7.75
2023-01-09T02:21:21.263Z,7.77
2023-01-09T02:22:21.271Z,7.70
2023-01-09T02:23:21.259Z,7.74
2023-01-09T02:24:21.234Z,7.72
2023-01-09T02:25:21.243Z,7.69
2023-01-09T02:26:21.232Z,7.70
2023-01-09T02:27:21.184Z,7.72
2023-01-09T02:28:53.088Z,7.74
2023-01-09T02:29:21.189Z,7.69
2023-01-09T02:30:21.147Z,7.78
2023-01-09T02:31:21.215Z,7.77
2023-01-09T02:32:21.154Z,7.74
2023-01-09T02:33:21.114Z,7.80
2023-01-09T02:34:21.132Z,7.80
2023-01-09T02:35:21.142Z,7.69
2023-01-09T02:36:21.142Z,7.75
2023-01-09T02:37:21.105Z,7.64
2023-01-09T02:38:21.075Z,7.74
2023-01-09T02:39:21.093Z,7.72
2023-01-09T02:40:21.068Z,7.67
2023-01-09T02:41:21.039Z,7.64
2023-01-09T02:42:21.033Z,7.64
2023-01-09T02:43:21.039Z,7.66
2023-01-09T02:44:21.026Z,7.70
2023-01-09T02:45:20.986Z,7.64
2023-01-09T02:46:21.026Z,7.69
2023-01-09T02:47:20.994Z,7.72
2023-01-09T02:48:20.981Z,7.66
2023-01-09T02:49:20.997Z,7.66
2023-01-09T02:50:20.962Z,7.66
2023-01-09T02:51:20.928Z,7.66
2023-01-09T02:52:20.952Z,7.59
2023-01-09T02:53:20.953Z,7.59
2023-01-09T02:54:20.899Z,7.74
2023-01-09T02:55:20.908Z,7.70
2023-01-09T02:56:20.905Z,7.70
2023-01-09T02:57:20.885Z,7.66
2023-01-09T02:58:20.887Z,7.62
2023-01-09T02:59:20.899Z,7.62
2023-01-09T03:00:20.845Z,7.67
2023-01-09T03:01:20.944Z,7.66
2023-01-09T03:02:20.878Z,7.62
2023-01-09T03:03:20.830Z,7.64
2023-01-09T03:04:20.808Z,7.77
2023-01-09T03:05:20.820Z,7.58
2023-01-09T03:06:20.792Z,7.58
2023-01-09T03:07:20.774Z,7.64
2023-01-09T03:08:20.768Z,7.58
2023-01-09T03:09:20.772Z,7.67
2023-01-09T03:10:20.769Z,7.58
2023-01-09T03:11:20.717Z,7.62
2023-01-09T03:12:20.721Z,7.59
2023-01-09T03:13:20.720Z,7.59
2023-01-09T03:14:20.717Z,7.61
2023-01-09T03:15:20.682Z,7.56
2023-01-09T03:16:20.715Z,7.59
2023-01-09T03:17:20.669Z,7.62
2023-01-09T03:18:20.651Z,7.56
2023-01-09T03:19:20.655Z,7.58
2023-01-09T03:20:20.633Z,7.53
2023-01-09T03:21:20.600Z,7.62
2023-01-09T03:22:20.594Z,7.56
2023-01-09T03:23:20.614Z,7.50
2023-01-09T03:24:20.610Z,7.53
2023-01-09T03:25:20.563Z,7.53
2023-01-09T03:26:20.591Z,7.56
2023-01-09T03:27:20.583Z,7.56
2023-01-09T03:28:20.551Z,7.62
2023-01-09T03:29:20.545Z,7.56
2023-01-09T03:30:20.528Z,7.62
2023-01-09T03:31:20.524Z,7.50
2023-01-09T03:32:21.523Z,7.56
2023-01-09T03:33:20.534Z,7.53
2023-01-09T03:34:20.463Z,7.55
2023-01-09T03:35:20.503Z,7.59
2023-01-09T03:36:20.463Z,7.55
2023-01-09T03:37:20.435Z,7.55
2023-01-09T03:38:20.442Z,7.51
2023-01-09T03:39:20.461Z,7.47
2023-01-09T03:40:20.416Z,7.46
2023-01-09T03:41:20.396Z,7.53
2023-01-09T03:42:20.455Z,7.46
2023-01-09T03:43:20.375Z,7.47
2023-01-09T03:44:20.387Z,7.58
2023-01-09T03:45:20.377Z,7.36
2023-01-09T03:46:20.361Z,7.47
2023-01-09T03:47:20.338Z,7.46
2023-01-09T03:48:20.339Z,7.41
2023-01-09T03:49:20.347Z,7.39
2023-01-09T03:50:20.302Z,7.46
2023-01-09T03:51:20.331Z,7.33
2023-01-09T03:52:20.310Z,7.29
2023-01-09T03:53:20.272Z,7.26
2023-01-09T03:54:20.269Z,7.31
2023-01-09T03:55:20.275Z,7.21
2023-01-09T03:56:20.264Z,7.22
2023-01-09T03:57:20.234Z,7.25
2023-01-09T03:58:20.245Z,7.19
2023-01-09T03:59:20.226Z,7.22
2023-01-09T04:00:20.198Z,7.19
2023-01-09T04:01:20.284Z,7.10
2023-01-09T04:02:20.178Z,7.15
2023-01-09T04:03:20.168Z,7.11
2023-01-09T04:04:20.161Z,7.11
2023-01-09T04:05:20.177Z,7.13
2023-01-09T04:06:20.133Z,7.10
2023-01-09T04:07:20.156Z,7.26
2023-01-09T04:08:20.139Z,7.13
2023-01-09T04:09:20.082Z,7.14
2023-01-09T04:10:20.086Z,7.19
2023-01-09T04:11:20.127Z,7.15
2023-01-09T04:12:20.088Z,7.21
2023-01-09T04:13:20.076Z,7.19
2023-01-09T04:14:20.063Z,7.23
2023-01-09T04:15:20.064Z,7.15
2023-01-09T04:16:20.070Z,7.13
2023-01-09T04:17:20.005Z,7.21
2023-01-09T04:18:20.041Z,7.04
2023-01-09T04:19:20.033Z,7.11
2023-01-09T04:20:19.990Z,7.08
2023-01-09T04:21:19.959Z,7.10
2023-01-09T04:22:19.993Z,7.07
2023-01-09T04:23:19.934Z,7.15
2023-01-09T04:24:19.963Z,7.13
2023-01-09T04:25:19.953Z,7.08
2023-01-09T04:26:19.928Z,7.13
2023-01-09T04:27:19.914Z,7.18
2023-01-09T04:28:19.906Z,7.14
2023-01-09T04:29:19.926Z,7.21
2023-01-09T04:30:19.897Z,7.10
2023-01-09T04:31:19.915Z,7.11
2023-01-09T04:32:19.858Z,7.05
2023-01-09T04:33:19.844Z,7.07
2023-01-09T04:34:19.847Z,7.08
2023-01-09T04:35:19.853Z,7.04
2023-01-09T04:36:19.844Z,7.14
2023-01-09T04:37:19.804Z,7.13
2023-01-09T04:38:19.823Z,7.14
2023-01-09T04:39:19.780Z,7.03
2023-01-09T04:40:19.776Z,7.05
2023-01-09T04:41:19.802Z,7.07
2023-01-09T04:42:19.769Z,7.01
2023-01-09T04:43:19.742Z,6.97
2023-01-09T04:44:19.739Z,7.05
2023-01-09T04:45:19.747Z,7.10
2023-01-09T04:46:19.721Z,7.04
2023-01-09T04:47:19.714Z,7.07
2023-01-09T04:48:19.693Z,7.04
2023-01-09T04:49:19.699Z,6.97
2023-01-09T04:50:19.721Z,7.07
2023-01-09T04:51:19.663Z,7.00
2023-01-09T04:52:19.662Z,7.00
2023-01-09T04:53:19.662Z,7.01
2023-01-09T04:54:19.648Z,7.03
2023-01-09T04:55:19.657Z,7.05
2023-01-09T04:56:19.624Z,7.01
2023-01-09T04:57:19.586Z,7.19
2023-01-09T04:58:19.591Z,6.97
2023-01-09T04:59:19.618Z,7.07
2023-01-09T05:00:19.598Z,6.97
2023-01-09T05:01:19.600Z,7.15
2023-01-09T05:02:19.581Z,6.97
2023-01-09T05:03:19.550Z,6.97
2023-01-09T05:04:19.586Z,7.01
2023-01-09T05:05:19.556Z,6.96
2023-01-09T05:06:19.518Z,7.03
2023-01-09T05:07:19.488Z,7.05
2023-01-09T05:08:19.489Z,7.03
2023-01-09T05:09:19.505Z,7.04
2023-01-09T05:10:19.453Z,7.04
2023-01-09T05:11:19.482Z,7.04
2023-01-09T05:12:19.464Z,7.08
2023-01-09T05:13:19.422Z,7.05
2023-01-09T05:14:19.453Z,6.96
2023-01-09T05:15:19.435Z,6.97
2023-01-09T05:16:19.448Z,7.01
2023-01-09T05:17:19.391Z,7.00
2023-01-09T05:18:19.384Z,6.96
2023-01-09T05:19:19.405Z,6.92
2023-01-09T05:20:19.371Z,6.92
2023-01-09T05:21:19.339Z,6.97
2023-01-09T05:22:19.368Z,6.89
2023-01-09T05:23:19.357Z,6.87
2023-01-09T05:24:19.320Z,6.95
2023-01-09T05:25:19.299Z,6.95
2023-01-09T05:26:19.324Z,6.93
2023-01-09T05:27:19.309Z,7.00
2023-01-09T05:28:19.281Z,7.03
2023-01-09T05:29:19.295Z,7.03
2023-01-09T05:30:19.257Z,7.00
2023-01-09T05:31:19.331Z,6.96
2023-01-09T05:32:19.259Z,6.96
2023-01-09T05:33:19.234Z,6.89
2023-01-09T05:34:19.210Z,6.93
2023-01-09T05:35:19.239Z,6.92
2023-01-09T05:36:19.197Z,6.86
2023-01-09T05:37:19.177Z,6.93
2023-01-09T05:38:19.172Z,6.89
2023-01-09T05:39:19.181Z,6.83
2023-01-09T05:40:19.166Z,6.92
2023-01-09T05:41:19.120Z,6.86
2023-01-09T05:42:19.169Z,6.86
2023-01-09T05:43:19.096Z,6.93
2023-01-09T05:44:19.106Z,6.87
2023-01-09T05:45:19.111Z,6.80
2023-01-09T05:46:19.105Z,6.86
2023-01-09T05:47:19.078Z,6.87
2023-01-09T05:48:19.088Z,6.86
2023-01-09T05:49:19.083Z,6.77
2023-01-09T05:50:19.018Z,6.78
2023-01-09T05:51:19.051Z,6.75
2023-01-09T05:52:19.035Z,6.74
2023-01-09T05:53:19.012Z,6.72
2023-01-09T05:54:19.027Z,6.71
2023-01-09T05:55:19.031Z,6.70
2023-01-09T05:56:18.996Z,6.64
2023-01-09T05:57:18.956Z,6.68
2023-01-09T05:58:18.976Z,6.70
2023-01-09T05:59:18.952Z,6.59
2023-01-09T06:00:18.963Z,6.67
2023-01-09T06:01:19.026Z,6.65
2023-01-09T06:02:19.016Z,6.67
2023-01-09T06:03:18.923Z,6.65
2023-01-09T06:04:18.921Z,6.65
2023-01-09T06:05:18.914Z,6.62
2023-01-09T06:06:18.858Z,6.59
2023-01-09T06:07:22.120Z,6.64
2023-01-09T06:08:19.887Z,6.65
2023-01-09T06:09:18.846Z,6.67
2023-01-09T06:10:18.828Z,6.60
2023-01-09T06:11:18.861Z,6.62
2023-01-09T06:12:18.833Z,6.68
2023-01-09T06:13:18.793Z,6.52
2023-01-09T06:14:18.838Z,6.57
2023-01-09T06:15:18.787Z,6.57
2023-01-09T06:16:18.848Z,6.50
2023-01-09T06:17:18.784Z,6.54
2023-01-09T06:18:18.771Z,6.60
2023-01-09T06:19:18.738Z,6.62
2023-01-09T06:20:18.736Z,6.64
2023-01-09T06:21:18.741Z,6.62
2023-01-09T06:22:18.774Z,6.64
2023-01-09T06:23:18.697Z,6.68
2023-01-09T06:24:18.703Z,6.67
2023-01-09T06:25:18.707Z,6.71
2023-01-09T06:26:18.695Z,6.70
2023-01-09T06:27:18.678Z,6.67
2023-01-09T06:28:18.669Z,6.62
2023-01-09T06:29:18.681Z,6.62
2023-01-09T06:30:18.633Z,6.65
2023-01-09T06:31:18.670Z,6.65
2023-01-09T06:32:18.615Z,6.65
2023-01-09T06:33:18.588Z,6.67
2023-01-09T06:34:18.594Z,6.56
2023-01-09T06:35:18.588Z,6.62
2023-01-09T06:36:19.354Z,6.67
2023-01-09T06:37:18.555Z,6.68
2023-01-09T06:38:18.580Z,6.64
2023-01-09T06:39:18.534Z,6.62
2023-01-09T06:40:18.549Z,6.60
2023-01-09T06:41:18.557Z,6.54
2023-01-09T06:42:18.533Z,6.67
2023-01-09T06:43:18.496Z,6.64
2023-01-09T06:44:18.496Z,6.64
2023-01-09T06:45:18.502Z,6.67
2023-01-09T06:46:18.509Z,6.65
2023-01-09T06:47:19.482Z,6.68
2023-01-09T06:48:18.470Z,6.59
2023-01-09T06:49:18.428Z,6.64
2023-01-09T06:50:18.437Z,6.65
2023-01-09T06:51:18.455Z,6.74
2023-01-09T06:52:18.415Z,6.70
2023-01-09T06:53:18.397Z,6.64
2023-01-09T06:54:18.408Z,6.65
2023-01-09T06:55:18.418Z,6.68
2023-01-09T06:56:18.370Z,6.67
2023-01-09T06:57:18.367Z,6.62
2023-01-09T06:58:18.347Z,6.64
2023-01-09T06:59:18.361Z,6.57
2023-01-09T07:00:18.353Z,6.60
2023-01-09T07:01:18.437Z,6.57
2023-01-09T07:02:18.384Z,6.52
2023-01-09T07:03:18.275Z,6.60
2023-01-09T07:04:18.348Z,6.59
2023-01-09T07:05:18.287Z,6.59
2023-01-09T07:06:18.299Z,6.57
2023-01-09T07:07:18.239Z,6.44
2023-01-09T07:08:18.241Z,6.52
2023-01-09T07:09:18.261Z,6.56
2023-01-09T07:10:18.219Z,6.53
2023-01-09T07:11:18.241Z,6.54
2023-01-09T07:12:18.209Z,6.52
2023-01-09T07:13:18.202Z,6.46
2023-01-09T07:14:18.185Z,6.44
2023-01-09T07:15:18.206Z,6.36
2023-01-09T07:16:18.264Z,6.39
2023-01-09T07:17:18.139Z,6.49
2023-01-09T07:18:18.153Z,6.36
2023-01-09T07:19:18.118Z,6.36
2023-01-09T07:20:18.111Z,6.39
2023-01-09T07:21:18.116Z,6.38
2023-01-09T07:22:18.099Z,6.32
2023-01-09T07:23:18.078Z,6.38
2023-01-09T07:24:18.087Z,6.39
2023-01-09T07:25:18.087Z,6.31
2023-01-09T07:26:18.077Z,6.25
2023-01-09T07:27:18.030Z,6.29
2023-01-09T07:28:18.042Z,6.25
2023-01-09T07:29:18.048Z,6.10
2023-01-09T07:30:18.018Z,6.20
2023-01-09T07:31:18.080Z,6.15
2023-01-09T07:32:17.987Z,6.10
2023-01-09T07:33:18.005Z,6.15
2023-01-09T07:34:17.972Z,6.15
2023-01-09T07:35:17.975Z,6.12
2023-01-09T07:36:17.986Z,6.09
2023-01-09T07:37:17.934Z,6.12
2023-01-09T07:38:17.939Z,6.06
2023-01-09T07:39:17.975Z,6.16
2023-01-09T07:40:17.917Z,6.12
2023-01-09T07:41:17.877Z,6.07
2023-01-09T07:42:17.931Z,6.01
2023-01-09T07:43:17.886Z,6.05
2023-01-09T07:44:17.871Z,6.06
2023-01-09T07:45:17.875Z,5.97
2023-01-09T07:46:17.953Z,5.97
2023-01-09T07:47:17.815Z,6.01
2023-01-09T07:48:17.828Z,5.99
2023-01-09T07:49:17.837Z,5.99
2023-01-09T07:50:17.827Z,6.05
2023-01-09T07:51:17.799Z,5.99
2023-01-09T07:52:17.819Z,6.01
2023-01-09T07:53:17.748Z,6.07
2023-01-09T07:54:17.753Z,6.09
2023-01-09T07:55:17.815Z,6.10
2023-01-09T07:56:17.744Z,6.07
2023-01-09T07:57:17.714Z,6.19
2023-01-09T07:58:17.737Z,6.17
2023-01-09T07:59:17.724Z,6.16
2023-01-09T08:00:17.702Z,6.20
2023-01-09T08:01:17.821Z,6.19
2023-01-09T08:02:17.728Z,6.16
2023-01-09T08:03:17.686Z,6.19
2023-01-09T08:04:17.670Z,6.22
2023-01-09T08:05:17.627Z,6.29
2023-01-09T08:06:17.652Z,6.25
2023-01-09T08:07:17.646Z,6.25
2023-01-09T08:08:17.626Z,6.25
2023-01-09T08:09:17.619Z,6.35
2023-01-09T08:10:17.604Z,6.34
2023-01-09T08:11:17.572Z,6.36
2023-01-09T08:12:17.586Z,6.31
2023-01-09T08:13:17.572Z,6.39
2023-01-09T08:14:17.547Z,6.39
2023-01-09T08:15:17.555Z,6.43
2023-01-09T08:16:17.589Z,6.47
2023-01-09T08:17:17.503Z,6.39
2023-01-09T08:18:17.511Z,6.49
2023-01-09T08:19:17.505Z,6.46
2023-01-09T08:20:17.514Z,6.47
2023-01-09T08:21:17.489Z,6.49
2023-01-09T08:22:17.487Z,6.49
2023-01-09T08:23:17.439Z,6.53
2023-01-09T08:24:17.456Z,6.56
2023-01-09T08:25:17.455Z,6.50
2023-01-09T08:26:17.458Z,6.57
2023-01-09T08:27:17.417Z,6.56
2023-01-09T08:28:17.411Z,6.57
2023-01-09T08:29:49.988Z,6.60
2023-01-09T08:30:17.431Z,6.59
2023-01-09T08:31:17.462Z,6.71
2023-01-09T08:32:17.395Z,6.56
2023-01-09T08:33:17.353Z,6.56
2023-01-09T08:34:17.363Z,6.52
2023-01-09T08:35:17.369Z,6.59
2023-01-09T08:36:17.399Z,6.59
2023-01-09T08:37:17.316Z,6.62
2023-01-09T08:38:17.345Z,6.60
2023-01-09T08:39:17.309Z,6.56
2023-01-09T08:40:17.287Z,6.67
2023-01-09T08:41:17.301Z,6.65
2023-01-09T08:42:17.273Z,6.67
2023-01-09T08:43:17.249Z,6.64
2023-01-09T08:44:17.261Z,6.65
2023-01-09T08:45:17.233Z,6.65
2023-01-09T08:46:17.273Z,6.67
2023-01-09T08:47:17.254Z,6.77
2023-01-09T08:48:17.223Z,6.72
2023-01-09T08:49:17.191Z,6.71
2023-01-09T08:50:17.236Z,6.75
2023-01-09T08:51:17.170Z,6.68
2023-01-09T08:52:17.188Z,6.59
2023-01-09T08:53:17.141Z,6.75
2023-01-09T08:54:17.135Z,6.80
2023-01-09T08:55:18.185Z,6.86
2023-01-09T08:56:17.120Z,6.92
2023-01-09T08:57:17.111Z,6.90
2023-01-09T08:58:17.146Z,6.90
2023-01-09T08:59:17.105Z,6.93
2023-01-09T09:00:17.093Z,6.96
2023-01-09T09:01:17.102Z,6.87
2023-01-09T09:02:17.099Z,6.86
2023-01-09T09:03:17.071Z,6.95
2023-01-09T09:04:17.032Z,6.90
2023-01-09T09:05:17.038Z,6.93
2023-01-09T09:06:17.023Z,6.82
2023-01-09T09:07:16.991Z,6.89
2023-01-09T09:08:18.021Z,6.92
2023-01-09T09:09:16.974Z,6.92
2023-01-09T09:10:16.976Z,7.01
2023-01-09T09:11:17.549Z,6.90
2023-01-09T09:12:16.957Z,7.04
2023-01-09T09:13:17.943Z,7.07
2023-01-09T09:14:16.913Z,7.14
2023-01-09T09:15:16.920Z,7.19
2023-01-09T09:16:16.999Z,7.32
2023-01-09T09:17:16.909Z,7.31
2023-01-09T09:18:16.890Z,7.28
2023-01-09T09:19:16.864Z,7.29
2023-01-09T09:20:16.879Z,7.44
2023-01-09T09:21:16.861Z,7.53
2023-01-09T09:22:16.850Z,7.64
2023-01-09T09:23:16.845Z,7.59
2023-01-09T09:24:16.811Z,7.56
2023-01-09T09:25:16.815Z,7.56
2023-01-09T09:26:16.795Z,7.56
2023-01-09T09:27:16.797Z,7.48
2023-01-09T09:28:16.822Z,7.55
2023-01-09T09:29:16.760Z,7.66
2023-01-09T09:30:16.768Z,7.41
2023-01-09T09:31:16.812Z,7.47
2023-01-09T09:32:16.722Z,7.46
2023-01-09T09:33:16.701Z,7.44
2023-01-09T09:34:16.700Z,7.36
2023-01-09T09:35:16.744Z,7.36
2023-01-09T09:36:16.687Z,7.39
2023-01-09T09:37:16.724Z,7.33
2023-01-09T09:38:16.655Z,7.37
2023-01-09T09:39:16.653Z,7.29
2023-01-09T09:40:18.653Z,7.33
2023-01-09T09:41:17.627Z,7.26
2023-01-09T09:42:16.656Z,7.31
2023-01-09T09:43:16.612Z,7.31
2023-01-09T09:44:16.602Z,7.28
2023-01-09T09:45:16.591Z,7.23
2023-01-09T09:46:16.595Z,7.29
2023-01-09T09:47:16.552Z,7.39
2023-01-09T09:48:16.566Z,7.51
2023-01-09T09:49:16.549Z,7.58
2023-01-09T09:50:16.547Z,7.75
2023-01-09T09:51:16.558Z,7.84
2023-01-09T09:52:16.501Z,7.87
2023-01-09T09:53:16.503Z,7.84
2023-01-09T09:54:16.504Z,7.93
2023-01-09T09:55:16.470Z,8.03
2023-01-09T09:56:16.465Z,8.13
2023-01-09T09:57:16.494Z,7.98
2023-01-09T09:58:16.458Z,8.01
2023-01-09T09:59:16.477Z,8.08
2023-01-09T10:00:16.439Z,8.23
2023-01-09T10:01:16.445Z,8.38
2023-01-09T10:02:16.511Z,8.24
2023-01-09T10:03:20.454Z,8.08
2023-01-09T10:04:18.415Z,8.08
2023-01-09T10:05:16.362Z,8.18
2023-01-09T10:06:16.426Z,8.23
2023-01-09T10:07:16.348Z,8.35
2023-01-09T10:08:16.366Z,8.41
2023-01-09T10:09:16.341Z,8.21
2023-01-09T10:10:16.311Z,8.36
2023-01-09T10:11:16.299Z,8.39
2023-01-09T10:12:16.303Z,8.32
2023-01-09T10:13:16.279Z,8.17
2023-01-09T10:14:23.837Z,8.16
2023-01-09T10:15:18.259Z,8.17
2023-01-09T10:16:16.236Z,8.24
2023-01-09T10:17:16.240Z,8.16
2023-01-09T10:18:16.223Z,8.01
2023-01-09T10:19:16.260Z,7.98
2023-01-09T10:20:16.270Z,8.02
2023-01-09T10:21:16.227Z,8.05
2023-01-09T10:22:16.187Z,8.03
2023-01-09T10:23:16.186Z,7.93
2023-01-09T10:24:16.171Z,7.91
2023-01-09T10:25:16.165Z,7.90
2023-01-09T10:26:16.125Z,7.83
2023-01-09T10:27:16.141Z,7.77
2023-01-09T10:28:16.119Z,7.77
2023-01-09T10:29:16.100Z,7.77
2023-01-09T10:30:16.114Z,7.95
2023-01-09T10:31:16.133Z,7.99
2023-01-09T10:32:16.064Z,8.02
2023-01-09T10:33:17.061Z,8.02
2023-01-09T10:34:16.057Z,7.96
2023-01-09T10:35:16.064Z,8.09
2023-01-09T10:36:16.034Z,7.96
2023-01-09T10:37:16.032Z,8.05
2023-01-09T10:38:16.023Z,8.16
2023-01-09T10:39:16.001Z,8.24
2023-01-09T10:40:15.987Z,8.27
2023-01-09T10:41:15.991Z,8.35
2023-01-09T10:42:15.960Z,8.54
2023-01-09T10:43:15.953Z,8.49
2023-01-09T10:44:15.939Z,8.53
2023-01-09T10:45:15.934Z,8.68
2023-01-09T10:46:15.955Z,8.72
2023-01-09T10:47:15.945Z,8.74
2023-01-09T10:48:15.877Z,8.92
2023-01-09T10:49:15.914Z,9.13
2023-01-09T10:50:15.876Z,9.02
2023-01-09T10:51:15.946Z,8.97
2023-01-09T10:52:15.979Z,9.03
2023-01-09T10:53:15.816Z,9.11
2023-01-09T10:54:15.818Z,9.11
2023-01-09T10:55:15.816Z,9.02
2023-01-09T10:56:15.790Z,8.92
2023-01-09T10:57:15.791Z,8.93
2023-01-09T10:58:15.777Z,9.09
2023-01-09T10:59:15.754Z,9.13
2023-01-09T11:00:15.768Z,8.92
2023-01-09T11:01:15.740Z,8.52
2023-01-09T11:02:15.756Z,8.54
2023-01-09T11:03:15.774Z,8.53
2023-01-09T11:04:15.703Z,8.41
2023-01-09T11:05:16.682Z,8.53
2023-01-09T11:06:15.665Z,8.50
2023-01-09T11:07:15.676Z,8.50
2023-01-09T11:08:15.665Z,8.38
2023-01-09T11:09:15.650Z,8.36
2023-01-09T11:10:15.628Z,8.49
2023-01-09T11:11:15.628Z,8.52
2023-01-09T11:12:15.631Z,8.57
2023-01-09T11:13:15.596Z,8.35
2023-01-09T11:14:15.582Z,8.36
2023-01-09T11:15:15.600Z,8.16
2023-01-09T11:16:15.614Z,7.96
2023-01-09T11:17:15.537Z,7.99
2023-01-09T11:18:15.557Z,8.02
2023-01-09T11:19:15.536Z,8.03
2023-01-09T11:20:15.524Z,8.05
2023-01-09T11:21:15.551Z,7.99
2023-01-09T11:22:15.498Z,7.96
2023-01-09T11:23:15.475Z,7.99
2023-01-09T11:24:15.490Z,8.05
2023-01-09T11:25:15.467Z,7.90
2023-01-09T11:26:15.453Z,7.99
2023-01-09T11:27:15.446Z,8.14
2023-01-09T11:28:15.428Z,8.01
2023-01-09T11:29:15.425Z,8.11
2023-01-09T11:30:15.408Z,8.14
2023-01-09T11:31:15.427Z,8.21
2023-01-09T11:32:15.406Z,8.28
2023-01-09T11:33:15.364Z,8.28
2023-01-09T11:34:15.379Z,8.26
2023-01-09T11:35:15.348Z,8.24
2023-01-09T11:36:15.328Z,8.11
2023-01-09T11:37:15.325Z,8.09
2023-01-09T11:38:15.318Z,8.24
2023-01-09T11:39:15.304Z,8.06
2023-01-09T11:40:15.296Z,8.16
2023-01-09T11:41:15.273Z,8.20
2023-01-09T11:42:15.269Z,8.17
2023-01-09T11:43:15.271Z,8.31
2023-01-09T11:44:15.237Z,8.27
2023-01-09T11:45:15.259Z,8.18
2023-01-09T11:46:15.296Z,8.18
2023-01-09T11:47:15.202Z,8.31
2023-01-09T11:48:15.209Z,8.16
2023-01-09T11:49:15.210Z,8.32
2023-01-09T11:50:15.182Z,8.27
2023-01-09T11:51:15.194Z,8.27
2023-01-09T11:52:15.170Z,8.27
2023-01-09T11:53:15.153Z,8.21
2023-01-09T11:54:15.119Z,8.17
2023-01-09T11:55:15.115Z,7.98
2023-01-09T11:56:15.130Z,8.01
2023-01-09T11:57:15.115Z,7.96
2023-01-09T11:58:15.091Z,7.96
2023-01-09T11:59:15.101Z,7.96
2023-01-09T12:00:15.072Z,8.02
2023-01-09T12:01:15.060Z,7.90
2023-01-09T12:02:15.204Z,7.96
2023-01-09T12:03:15.087Z,7.91
2023-01-09T12:04:15.047Z,7.90
2023-01-09T12:05:15.018Z,7.93
2023-01-09T12:06:14.999Z,7.87
2023-01-09T12:07:15.005Z,7.98
2023-01-09T12:08:14.978Z,7.93
2023-01-09T12:09:14.968Z,7.95
2023-01-09T12:10:14.975Z,7.93
2023-01-09T12:11:14.991Z,7.88
2023-01-09T12:12:16.428Z,8.03
2023-01-09T12:13:14.909Z,7.96
2023-01-09T12:14:14.908Z,8.08
2023-01-09T12:15:14.882Z,8.05
2023-01-09T12:16:14.942Z,7.95
2023-01-09T12:17:14.901Z,7.98
2023-01-09T12:18:14.864Z,7.98
2023-01-09T12:19:14.884Z,7.98
2023-01-09T12:20:14.842Z,7.99
2023-01-09T12:21:16.496Z,7.90
2023-01-09T12:22:14.802Z,7.93
2023-01-09T12:23:14.805Z,7.99
2023-01-09T12:24:14.791Z,8.09
2023-01-09T12:25:14.799Z,8.11
2023-01-09T12:26:14.780Z,8.27
2023-01-09T12:27:17.212Z,8.26
2023-01-09T12:28:15.750Z,8.31
2023-01-09T12:29:14.750Z,8.34
2023-01-09T12:30:14.831Z,8.45
2023-01-09T12:31:14.779Z,8.42
2023-01-09T12:32:14.699Z,8.57
2023-01-09T12:33:14.723Z,8.49
2023-01-09T12:34:14.685Z,8.50
2023-01-09T12:35:14.693Z,8.50
2023-01-09T12:36:14.676Z,8.45
2023-01-09T12:37:14.737Z,8.34
2023-01-09T12:38:14.624Z,8.27
2023-01-09T12:39:14.623Z,8.24
2023-01-09T12:40:14.756Z,8.28
2023-01-09T12:41:14.610Z,8.31
2023-01-09T12:42:14.575Z,8.32
2023-01-09T12:43:14.597Z,8.11
2023-01-09T12:44:15.636Z,8.17
2023-01-09T12:45:14.563Z,8.27
2023-01-09T12:46:14.629Z,8.20
2023-01-09T12:47:14.541Z,8.50
2023-01-09T12:48:14.538Z,8.60
2023-01-09T12:49:14.507Z,8.79
2023-01-09T12:50:14.559Z,8.96
2023-01-09T12:51:14.507Z,8.92
2023-01-09T12:52:14.495Z,9.02
2023-01-09T12:53:14.473Z,8.84
2023-01-09T12:54:14.470Z,8.79
2023-01-09T12:55:14.444Z,8.81
2023-01-09T12:56:14.471Z,8.74
2023-01-09T12:57:14.429Z,8.56
2023-01-09T12:58:14.416Z,8.45
2023-01-09T12:59:14.429Z,8.46
2023-01-09T13:00:14.370Z,8.45
2023-01-09T13:01:14.513Z,8.49
2023-01-09T13:02:14.440Z,8.49
2023-01-09T13:03:14.378Z,8.54
2023-01-09T13:04:14.353Z,8.61
2023-01-09T13:05:14.323Z,8.53
2023-01-09T13:06:14.367Z,8.44
2023-01-09T13:07:14.332Z,8.49
2023-01-09T13:08:14.336Z,8.46
2023-01-09T13:09:14.291Z,8.46
2023-01-09T13:10:14.285Z,8.46
2023-01-09T13:11:20.373Z,8.41
2023-01-09T13:12:16.241Z,8.49
2023-01-09T13:13:14.264Z,8.53
2023-01-09T13:14:14.235Z,8.53
2023-01-09T13:15:14.219Z,8.54
2023-01-09T13:16:14.252Z,8.53
2023-01-09T13:17:14.195Z,8.52
2023-01-09T13:18:14.194Z,8.50